Time;durP1;ratioP1;P1;durP2;ratioP2;P2;SDS_P1;SDS_P2;PMS_P1;PMS_P2;Temp;Humidity;BMP_temperature;BMP_pressure;BME280_temperature;BME280_humidity;BME280_pressure;Samples;Min_cycle;Max_cycle;Signal;HPM_P1;HPM_P2
2022/09/22 00:01:01;;;;;;;1.80;1.55;;;18.00;55.50;;;;;;4878774;29;20205;-35
2022/09/22 00:03:33;;;;;;;2.10;1.30;;;18.00;55.50;;;;;;4878965;29;20229;-41
2022/09/22 00:06:06;;;;;;;1.42;1.17;;;18.00;55.60;;;;;;4878488;29;20220;-35
2022/09/22 00:08:38;;;;;;;1.50;1.40;;;18.00;55.60;;;;;;4876069;29;20205;-35
2022/09/22 00:11:15;;;;;;;1.52;1.38;;;18.00;55.60;;;;;;4871382;29;20220;-35
2022/09/22 00:13:49;;;;;;;1.88;1.63;;;18.10;55.60;;;;;;4877745;29;20686;-35
2022/09/22 00:16:21;;;;;;;1.40;1.30;;;18.10;55.60;;;;;;4878686;29;20202;-35
2022/09/22 00:18:52;;;;;;;2.35;1.40;;;18.10;55.60;;;;;;4878390;29;20233;-36
2022/09/22 00:21:26;;;;;;;2.00;1.60;;;18.10;55.50;;;;;;4878052;29;20198;-35
2022/09/22 00:23:57;;;;;;;1.58;1.38;;;18.10;55.50;;;;;;4877872;29;20638;-38
2022/09/22 00:26:30;;;;;;;1.85;1.48;;;18.20;55.50;;;;;;4876089;29;20203;-34
2022/09/22 00:29:01;;;;;;;1.15;1.00;;;18.20;55.60;;;;;;4896992;29;20231;-39
2022/09/22 00:31:32;;;;;;;1.33;1.20;;;18.20;55.70;;;;;;4896058;29;20670;-35
2022/09/22 00:34:02;;;;;;;1.27;1.00;;;18.30;55.70;;;;;;4896450;29;20201;-36
2022/09/22 00:36:33;;;;;;;1.83;1.10;;;18.30;55.70;;;;;;4895888;29;20197;-35
2022/09/22 00:39:04;;;;;;;1.45;0.77;;;18.30;55.70;;;;;;4896132;29;20584;-34
2022/09/22 00:41:39;;;;;;;1.38;1.00;;;18.40;55.80;;;;;;4895729;29;20199;-35
2022/09/22 00:44:44;;;;;;;1.13;0.70;;;18.40;55.80;;;;;;4896368;29;20318;-35
2022/09/22 00:47:30;;;;;;;1.48;0.93;;;18.40;55.70;;;;;;4871504;29;20654;-43
2022/09/22 00:50:07;;;;;;;0.82;0.77;;;18.50;55.70;;;;;;4878086;29;20221;-35
2022/09/22 00:52:43;;;;;;;1.17;0.90;;;18.50;55.60;;;;;;4877516;29;20281;-35
2022/09/22 00:55:18;;;;;;;1.00;0.70;;;18.50;55.60;;;;;;4877798;29;20601;-40
2022/09/22 00:57:52;;;;;;;1.75;1.00;;;18.50;55.60;;;;;;4874889;29;20197;-39
2022/09/22 01:00:23;;;;;;;1.05;0.77;;;18.60;55.60;;;;;;4877229;29;20240;-37
2022/09/22 01:02:58;;;;;;;0.82;0.70;;;18.60;55.60;;;;;;4877504;29;20719;-36
2022/09/22 01:05:30;;;;;;;2.85;0.73;;;18.60;55.60;;;;;;4878165;29;20200;-34
2022/09/22 01:08:01;;;;;;;1.48;0.90;;;18.60;55.50;;;;;;4877616;29;20201;-39
2022/09/22 01:10:32;;;;;;;0.98;0.60;;;18.70;55.50;;;;;;4878381;29;20240;-36
2022/09/22 01:13:20;;;;;;;1.30;0.73;;;18.80;55.50;;;;;;4877949;29;20208;-36
2022/09/22 01:16:02;;;;;;;2.15;0.63;;;18.70;55.40;;;;;;4876955;29;20197;-35
2022/09/22 01:18:42;;;;;;;0.75;0.73;;;18.80;55.50;;;;;;4877427;29;20202;-35
2022/09/22 01:21:42;;;;;;;1.40;0.60;;;18.90;55.30;;;;;;4877634;29;20205;-39
2022/09/22 01:24:49;;;;;;;1.30;0.70;;;18.80;55.30;;;;;;4876179;29;20225;-35
2022/09/22 01:27:52;;;;;;;1.67;0.65;;;18.90;55.30;;;;;;4872389;29;20202;-35
2022/09/22 01:30:27;;;;;;;1.27;0.60;;;18.90;55.20;;;;;;4858851;29;20232;-35
2022/09/22 01:33:20;;;;;;;1.17;0.50;;;18.90;55.20;;;;;;4874800;29;20208;-35
2022/09/22 01:36:02;;;;;;;0.70;0.50;;;19.00;55.10;;;;;;4876276;29;20284;-35
2022/09/22 01:38:37;;;;;;;0.82;0.60;;;19.00;55.10;;;;;;4858451;29;20206;-37
2022/09/22 01:41:17;;;;;;;1.05;0.57;;;19.00;55.00;;;;;;4860197;29;20578;-35
2022/09/22 01:43:53;;;;;;;1.52;0.73;;;19.00;55.00;;;;;;4877470;29;20628;-35
2022/09/22 01:46:30;;;;;;;1.70;0.80;;;19.10;55.00;;;;;;4881999;29;20657;-36
2022/09/22 01:49:05;;;;;;;0.50;0.50;;;19.10;55.00;;;;;;4893952;29;20216;-35
2022/09/22 01:51:41;;;;;;;1.10;0.43;;;19.10;55.00;;;;;;4888243;29;20199;-35
2022/09/22 01:54:18;;;;;;;0.40;0.40;;;19.10;54.90;;;;;;4858900;29;20204;-38
2022/09/22 01:56:54;;;;;;;0.95;0.60;;;19.20;54.80;;;;;;4876789;29;20201;-35
2022/09/22 01:59:29;;;;;;;0.85;0.77;;;19.20;54.80;;;;;;4876999;29;20229;-36
2022/09/22 02:02:06;;;;;;;1.42;0.55;;;19.20;54.80;;;;;;4876875;29;20193;-34
2022/09/22 02:04:41;;;;;;;0.70;0.60;;;19.20;54.70;;;;;;4876533;29;20240;-37
2022/09/22 02:07:14;;;;;;;0.80;0.40;;;19.20;54.70;;;;;;4877612;29;20201;-37
2022/09/22 02:09:47;;;;;;;0.60;0.40;;;19.30;54.70;;;;;;4876787;29;20229;-35
2022/09/22 02:12:18;;;;;;;1.17;0.60;;;19.30;54.70;;;;;;4877963;29;20198;-36
2022/09/22 02:14:49;;;;;;;1.13;0.52;;;19.30;54.70;;;;;;4876502;29;20236;-35
2022/09/22 02:17:22;;;;;;;1.25;0.60;;;19.30;54.60;;;;;;4877215;29;20198;-40
2022/09/22 02:19:53;;;;;;;0.80;0.63;;;19.30;54.60;;;;;;4876726;29;20653;-35
2022/09/22 02:22:24;;;;;;;1.85;0.50;;;19.40;54.60;;;;;;4876219;29;20202;-36
2022/09/22 02:24:55;;;;;;;0.70;0.60;;;19.30;54.50;;;;;;4876713;29;20588;-38
2022/09/22 02:27:34;;;;;;;0.57;0.50;;;19.40;54.50;;;;;;4882276;29;20201;-39
2022/09/22 02:30:07;;;;;;;0.98;0.60;;;19.40;54.50;;;;;;4876336;29;20624;-40
2022/09/22 02:32:44;;;;;;;0.95;0.68;;;19.40;55.00;;;;;;4876481;29;20209;-49
2022/09/22 02:35:15;;;;;;;1.85;0.60;;;19.50;54.40;;;;;;4876199;29;20205;-36
2022/09/22 02:37:51;;;;;;;0.88;0.40;;;19.40;54.30;;;;;;4876711;29;20206;-44
2022/09/22 02:40:29;;;;;;;1.02;0.50;;;19.50;54.30;;;;;;4876654;29;20225;-35
2022/09/22 02:43:07;;;;;;;1.50;0.60;;;19.50;54.30;;;;;;4876174;29;20932;-35
2022/09/22 02:45:45;;;;;;;1.08;0.60;;;19.50;54.20;;;;;;4869428;29;20294;-38
2022/09/22 02:48:22;;;;;;;1.13;0.60;;;19.50;54.20;;;;;;4872694;29;20208;-35
2022/09/22 02:50:53;;;;;;;0.55;0.40;;;19.60;54.30;;;;;;4876717;29;20227;-39
2022/09/22 02:53:24;;;;;;;0.60;0.52;;;19.60;54.20;;;;;;4876391;29;20269;-37
2022/09/22 02:55:56;;;;;;;0.63;0.40;;;19.60;54.20;;;;;;4876836;29;20292;-41
2022/09/22 02:58:26;;;;;;;0.50;0.50;;;19.60;54.20;;;;;;4879110;29;20289;-37
2022/09/22 03:00:57;;;;;;;0.52;0.38;;;19.60;54.10;;;;;;4879481;29;20225;-35
2022/09/22 03:03:30;;;;;;;0.95;0.47;;;19.60;54.00;;;;;;4879720;29;20225;-38
2022/09/22 03:06:01;;;;;;;0.73;0.50;;;19.70;53.90;;;;;;4879122;29;20198;-41
2022/09/22 03:08:31;;;;;;;0.47;0.40;;;19.70;53.80;;;;;;4880206;29;20206;-37
2022/09/22 03:11:02;;;;;;;0.25;0.25;;;19.70;53.80;;;;;;4865376;29;20214;-39
2022/09/22 03:13:33;;;;;;;0.60;0.43;;;19.70;53.80;;;;;;4877379;29;20677;-39
2022/09/22 03:16:03;;;;;;;0.35;0.30;;;19.70;53.80;;;;;;4879209;29;20779;-35
2022/09/22 03:18:36;;;;;;;0.90;0.52;;;19.80;53.80;;;;;;4878465;29;20216;-36
2022/09/22 03:21:07;;;;;;;0.60;0.40;;;19.80;53.60;;;;;;4879490;29;20205;-40
2022/09/22 03:23:38;;;;;;;0.65;0.45;;;19.80;53.50;;;;;;4879397;29;20225;-39
2022/09/22 03:26:08;;;;;;;1.40;0.40;;;19.80;53.30;;;;;;4878820;29;20210;-35
2022/09/22 03:28:39;;;;;;;0.63;0.40;;;19.80;53.40;;;;;;4878642;29;20221;-36
2022/09/22 03:31:10;;;;;;;0.50;0.40;;;19.80;53.50;;;;;;4879881;29;20204;-35
2022/09/22 03:33:42;;;;;;;1.15;0.50;;;19.90;53.50;;;;;;4878931;29;20205;-34
2022/09/22 03:36:13;;;;;;;0.60;0.40;;;19.80;53.30;;;;;;4879826;29;20205;-35
2022/09/22 03:38:44;;;;;;;1.40;0.40;;;19.90;53.30;;;;;;4878650;29;20198;-36
2022/09/22 03:41:16;;;;;;;0.82;0.40;;;19.90;53.20;;;;;;4881444;29;20197;-36
2022/09/22 03:43:47;;;;;;;1.25;0.60;;;19.90;53.20;;;;;;4893997;29;20820;-36
2022/09/22 03:46:17;;;;;;;0.60;0.40;;;19.90;53.20;;;;;;4884199;29;20202;-37
2022/09/22 03:48:50;;;;;;;0.60;0.38;;;19.90;53.10;;;;;;4878691;29;20232;-37
2022/09/22 03:51:22;;;;;;;1.83;0.40;;;19.90;53.00;;;;;;4878767;29;20212;-35
2022/09/22 03:53:53;;;;;;;0.95;0.55;;;20.00;53.10;;;;;;4879173;29;20271;-39
2022/09/22 03:56:24;;;;;;;0.50;0.20;;;20.00;53.00;;;;;;4878327;29;20699;-35
2022/09/22 03:58:54;;;;;;;1.08;0.40;;;20.00;52.90;;;;;;4879183;29;20217;-38
2022/09/22 04:01:25;;;;;;;0.52;0.30;;;20.00;52.80;;;;;;4878804;29;20213;-38
2022/09/22 04:03:58;;;;;;;0.40;0.32;;;20.00;52.70;;;;;;4878407;29;20244;-37
2022/09/22 04:06:28;;;;;;;0.88;0.35;;;20.00;52.70;;;;;;4878351;29;20202;-35
2022/09/22 04:08:59;;;;;;;1.38;0.38;;;20.10;52.60;;;;;;4878296;29;20217;-36
2022/09/22 04:11:30;;;;;;;2.45;0.50;;;20.10;52.60;;;;;;4878176;29;20209;-36
2022/09/22 04:14:02;;;;;;;0.68;0.38;;;20.10;52.50;;;;;;4878308;29;20206;-35
2022/09/22 04:16:33;;;;;;;1.70;0.50;;;20.10;52.50;;;;;;4878867;29;20243;-39
2022/09/22 04:19:06;;;;;;;0.70;0.40;;;20.10;52.40;;;;;;4878038;29;20230;-41
2022/09/22 04:21:37;;;;;;;0.30;0.22;;;20.10;52.40;;;;;;4877918;29;20571;-47
2022/09/22 04:24:10;;;;;;;0.45;0.30;;;20.10;52.30;;;;;;4877748;29;20297;-35
2022/09/22 04:26:41;;;;;;;0.55;0.40;;;20.10;52.30;;;;;;4878224;29;20205;-35
2022/09/22 04:29:11;;;;;;;0.98;0.40;;;20.10;52.10;;;;;;4877819;29;20222;-39
2022/09/22 04:31:42;;;;;;;0.55;0.30;;;20.10;52.00;;;;;;4878544;29;20202;-45
2022/09/22 04:34:15;;;;;;;0.63;0.40;;;20.10;51.80;;;;;;4878000;29;20201;-35
2022/09/22 04:36:45;;;;;;;1.42;0.50;;;20.10;51.70;;;;;;4878067;29;20201;-36
2022/09/22 04:39:16;;;;;;;1.67;1.00;;;20.10;51.70;;;;;;4877331;29;20241;-35
2022/09/22 04:41:47;;;;;;;1.15;0.90;;;20.10;51.60;;;;;;4877793;29;20680;-35
2022/09/22 04:44:17;;;;;;;2.60;1.50;;;20.10;51.50;;;;;;4877980;29;20232;-38
2022/09/22 04:46:49;;;;;;;2.53;1.60;;;20.10;51.40;;;;;;4861294;29;20213;-36
2022/09/22 04:49:21;;;;;;;2.55;1.50;;;20.20;51.30;;;;;;4876197;29;20260;-41
2022/09/22 04:51:52;;;;;;;2.47;1.10;;;20.10;51.20;;;;;;4877868;29;20654;-38
2022/09/22 04:54:23;;;;;;;1.23;1.10;;;20.10;51.30;;;;;;4877950;29;20206;-44
2022/09/22 04:56:53;;;;;;;1.70;1.17;;;20.10;51.40;;;;;;4876484;29;20228;-35
2022/09/22 04:59:24;;;;;;;2.20;1.40;;;20.10;51.40;;;;;;4876100;29;20217;-44
2022/09/22 05:01:55;;;;;;;1.60;1.23;;;20.10;51.40;;;;;;4858025;29;20213;-35
2022/09/22 05:04:27;;;;;;;1.90;1.33;;;20.10;51.50;;;;;;4875036;29;20217;-37
2022/09/22 05:06:58;;;;;;;1.85;1.20;;;20.10;51.50;;;;;;4877967;29;20689;-35
2022/09/22 05:09:29;;;;;;;1.00;0.90;;;20.10;51.60;;;;;;4861177;29;20586;-40
2022/09/22 05:12:00;;;;;;;1.30;1.17;;;20.10;51.50;;;;;;4859003;29;20701;-35
2022/09/22 05:14:33;;;;;;;2.15;1.23;;;20.10;51.50;;;;;;4891770;29;20197;-40
2022/09/22 05:17:04;;;;;;;2.35;1.30;;;20.10;51.40;;;;;;4895700;29;20201;-38
2022/09/22 05:19:36;;;;;;;2.42;1.38;;;20.10;51.40;;;;;;4890075;29;20225;-35
2022/09/22 05:22:07;;;;;;;1.73;1.00;;;20.00;51.20;;;;;;4877173;29;20202;-35
2022/09/22 05:24:41;;;;;;;1.63;1.20;;;20.00;51.20;;;;;;4877090;29;20243;-34
2022/09/22 05:27:12;;;;;;;1.70;1.10;;;20.00;51.10;;;;;;4882474;29;20256;-36
2022/09/22 05:29:42;;;;;;;1.95;1.02;;;20.00;51.10;;;;;;4869188;29;20229;-35
2022/09/22 05:32:13;;;;;;;2.50;1.30;;;19.90;51.10;;;;;;4858800;29;20202;-36
2022/09/22 05:34:46;;;;;;;1.42;1.10;;;20.00;51.20;;;;;;4876267;29;20201;-36
2022/09/22 05:37:16;;;;;;;2.25;1.58;;;19.90;51.20;;;;;;4878957;29;20638;-35
2022/09/22 05:39:47;;;;;;;2.42;1.30;;;19.90;51.30;;;;;;4894441;29;20225;-36
2022/09/22 05:42:18;;;;;;;2.05;1.40;;;19.90;51.30;;;;;;4894934;29;20200;-36
2022/09/22 05:44:49;;;;;;;1.52;1.10;;;19.90;51.30;;;;;;4893821;29;20318;-42
2022/09/22 05:47:19;;;;;;;1.63;1.10;;;19.90;51.50;;;;;;4877231;29;20572;-40
2022/09/22 05:49:52;;;;;;;1.77;1.30;;;19.90;51.50;;;;;;4877129;29;20251;-36
2022/09/22 05:52:23;;;;;;;1.48;1.23;;;20.00;51.50;;;;;;4876130;29;20212;-38
2022/09/22 05:54:53;;;;;;;3.20;1.75;;;19.90;51.50;;;;;;4876504;29;20229;-36
2022/09/22 05:57:26;;;;;;;1.38;1.20;;;19.90;51.50;;;;;;4876943;29;20202;-36
2022/09/22 05:59:57;;;;;;;2.38;1.38;;;19.90;51.50;;;;;;4867412;29;20222;-39
2022/09/22 06:02:28;;;;;;;1.90;1.38;;;19.90;51.50;;;;;;4876720;29;20681;-38
2022/09/22 06:05:00;;;;;;;1.20;1.10;;;19.90;51.50;;;;;;4876101;29;20244;-36
2022/09/22 06:07:31;;;;;;;2.28;1.10;;;19.90;51.50;;;;;;4877277;29;20198;-37
2022/09/22 06:10:02;;;;;;;1.33;1.23;;;19.90;51.50;;;;;;4876270;29;20229;-41
2022/09/22 06:12:32;;;;;;;1.55;1.17;;;19.90;51.50;;;;;;4877765;29;20733;-36
2022/09/22 06:15:03;;;;;;;1.85;1.10;;;19.90;51.50;;;;;;4893833;29;20284;-36
2022/09/22 06:17:34;;;;;;;1.60;1.10;;;19.90;52.10;;;;;;4895585;29;20205;-43
2022/09/22 06:20:07;;;;;;;2.83;1.30;;;19.90;51.40;;;;;;4894572;29;20224;-41
2022/09/22 06:22:38;;;;;;;1.90;1.00;;;19.80;51.40;;;;;;4894421;29;20873;-38
2022/09/22 06:25:09;;;;;;;1.27;1.05;;;19.80;51.40;;;;;;4885366;29;20236;-35
2022/09/22 06:27:41;;;;;;;1.70;1.02;;;19.80;51.50;;;;;;4876814;29;20214;-37
2022/09/22 06:30:12;;;;;;;3.30;0.90;;;19.70;51.40;;;;;;4878058;29;20229;-36
2022/09/22 06:32:45;;;;;;;2.42;0.90;;;19.70;51.50;;;;;;4880050;29;20206;-39
2022/09/22 06:35:18;;;;;;;1.75;1.10;;;19.70;51.50;;;;;;4880587;29;20214;-41
2022/09/22 06:37:55;;;;;;;1.60;1.05;;;19.60;51.50;;;;;;4879773;29;20540;-36
2022/09/22 06:40:26;;;;;;;1.48;1.10;;;19.60;51.50;;;;;;4880525;29;20309;-37
2022/09/22 06:43:07;;;;;;;1.00;0.90;;;19.50;51.60;;;;;;4880524;29;20212;-36
2022/09/22 06:45:37;;;;;;;2.72;1.30;;;19.50;51.50;;;;;;4869239;29;20316;-45
2022/09/22 06:48:08;;;;;;;2.03;1.05;;;19.40;51.50;;;;;;4879790;29;20693;-39
2022/09/22 06:50:41;;;;;;;1.17;1.02;;;19.40;51.50;;;;;;4879483;29;20718;-39
2022/09/22 06:53:14;;;;;;;2.00;1.10;;;19.40;51.70;;;;;;4879985;29;20571;-37
2022/09/22 06:55:45;;;;;;;1.65;1.00;;;19.40;51.70;;;;;;4878182;29;20209;-35
2022/09/22 06:58:16;;;;;;;1.83;1.10;;;19.30;51.70;;;;;;4862573;29;20679;-41
2022/09/22 07:00:47;;;;;;;1.33;1.08;;;19.30;51.70;;;;;;4879937;29;20224;-36
2022/09/22 07:03:20;;;;;;;1.58;1.20;;;19.30;51.80;;;;;;4878965;29;20202;-36
2022/09/22 07:06:00;;;;;;;1.70;1.10;;;19.20;51.70;;;;;;4879072;29;20745;-36
2022/09/22 07:08:33;;;;;;;1.42;1.00;;;19.20;51.80;;;;;;4879321;29;20193;-38
2022/09/22 07:11:06;;;;;;;3.13;1.20;;;19.10;51.80;;;;;;4879122;29;20220;-44
2022/09/22 07:13:38;;;;;;;1.63;1.08;;;19.10;51.80;;;;;;4864841;29;20736;-39
2022/09/22 07:16:11;;;;;;;1.60;1.17;;;19.10;51.90;;;;;;4879078;29;20206;-38
2022/09/22 07:18:42;;;;;;;1.55;1.05;;;19.10;51.90;;;;;;4879048;29;20566;-42
2022/09/22 07:21:18;;;;;;;2.15;1.10;;;19.00;51.90;;;;;;4879320;29;20206;-39
2022/09/22 07:23:50;;;;;;;1.23;1.10;;;19.00;51.90;;;;;;4878983;29;20202;-38
2022/09/22 07:26:24;;;;;;;1.33;1.20;;;19.00;51.90;;;;;;4878482;29;20952;-38
2022/09/22 07:28:58;;;;;;;1.58;1.17;;;18.90;51.90;;;;;;4878396;29;20249;-39
2022/09/22 07:31:30;;;;;;;2.35;1.05;;;18.90;52.00;;;;;;4878741;29;20201;-44
2022/09/22 07:34:01;;;;;;;1.33;0.90;;;18.90;52.00;;;;;;4879035;29;20257;-40
2022/09/22 07:36:36;;;;;;;1.38;1.00;;;18.80;52.00;;;;;;4879755;29;20217;-37
2022/09/22 07:39:09;;;;;;;1.48;1.00;;;18.80;52.20;;;;;;4884343;29;20276;-39
2022/09/22 07:41:42;;;;;;;1.80;1.10;;;18.80;52.30;;;;;;4897522;29;20565;-41
2022/09/22 07:47:02;;;;;;;1.70;1.05;;;18.80;52.40;;;;;;4860850;29;20209;-35
2022/09/22 07:49:33;;;;;;;2.17;1.08;;;18.70;52.40;;;;;;4877091;29;20220;-38
2022/09/22 07:52:06;;;;;;;1.00;0.85;;;18.70;52.40;;;;;;4897328;29;20212;-35
2022/09/22 07:54:38;;;;;;;1.13;0.90;;;18.70;52.50;;;;;;4893151;29;20208;-35
2022/09/22 07:57:09;;;;;;;0.90;0.80;;;18.70;52.50;;;;;;4877783;29;20205;-35
2022/09/22 07:59:40;;;;;;;1.10;1.00;;;18.60;52.50;;;;;;4877709;29;20230;-39
2022/09/22 08:02:13;;;;;;;1.20;1.00;;;18.60;52.60;;;;;;4877476;29;20265;-40
2022/09/22 08:04:43;;;;;;;1.20;0.90;;;18.60;52.50;;;;;;4877495;29;20700;-35
2022/09/22 08:07:16;;;;;;;0.90;0.80;;;18.50;52.50;;;;;;4877213;29;20209;-35
2022/09/22 08:09:47;;;;;;;1.50;1.02;;;18.50;52.50;;;;;;4877361;29;20737;-41
2022/09/22 08:12:17;;;;;;;1.17;0.93;;;18.50;52.60;;;;;;4877556;29;20212;-36
2022/09/22 08:14:48;;;;;;;0.75;0.70;;;18.40;52.60;;;;;;4877068;29;20201;-35
2022/09/22 08:17:19;;;;;;;1.35;0.95;;;18.40;52.60;;;;;;4877135;29;20197;-38
2022/09/22 08:19:49;;;;;;;1.20;0.90;;;18.40;52.60;;;;;;4877049;29;20225;-40
2022/09/22 08:22:22;;;;;;;0.80;0.73;;;18.40;52.60;;;;;;4876641;29;20277;-35
2022/09/22 08:24:53;;;;;;;1.27;0.90;;;18.40;52.60;;;;;;4876551;29;20229;-36
2022/09/22 08:27:24;;;;;;;2.22;1.02;;;18.30;52.50;;;;;;4877330;29;20201;-39
2022/09/22 08:29:55;;;;;;;1.00;0.90;;;18.30;52.60;;;;;;4877195;29;20270;-43
2022/09/22 08:32:29;;;;;;;1.20;1.10;;;18.20;52.60;;;;;;4876829;29;20698;-35
2022/09/22 08:34:59;;;;;;;1.17;1.08;;;18.20;52.60;;;;;;4877044;29;20205;-38
2022/09/22 08:37:33;;;;;;;0.82;0.82;;;18.20;52.70;;;;;;4876445;29;20570;-34
2022/09/22 08:40:04;;;;;;;1.23;0.93;;;18.10;52.70;;;;;;4876886;29;20217;-37
2022/09/22 08:42:36;;;;;;;1.40;1.30;;;18.10;52.80;;;;;;4876767;29;20198;-39
2022/09/22 08:45:13;;;;;;;1.13;1.02;;;18.10;52.80;;;;;;4876628;29;20690;-37
2022/09/22 08:53:31;;;;;;;0.98;0.90;;;18.00;52.70;;;;;;4875505;29;20610;-36
2022/09/22 08:56:12;;;;;;;1.10;1.00;;;18.00;52.70;;;;;;4876261;29;20629;-41
2022/09/22 08:58:49;;;;;;;1.02;0.93;;;17.90;52.70;;;;;;4875866;29;20209;-39
2022/09/22 09:01:34;;;;;;;1.85;1.23;;;17.90;52.80;;;;;;4875818;29;20197;-49
2022/09/22 09:04:34;;;;;;;1.20;1.10;;;17.80;52.80;;;;;;4876589;29;20201;-37
2022/09/22 09:07:11;;;;;;;1.23;0.90;;;17.80;52.80;;;;;;4875974;29;20222;-36
2022/09/22 09:09:57;;;;;;;1.05;0.95;;;17.80;52.90;;;;;;4875868;29;20235;-35
2022/09/22 09:12:44;;;;;;;0.98;0.90;;;17.70;52.90;;;;;;4877033;29;20253;-37
2022/09/22 09:15:36;;;;;;;1.10;1.00;;;17.70;52.90;;;;;;4876497;29;20217;-39
2022/09/22 09:18:15;;;;;;;0.90;0.90;;;17.70;53.00;;;;;;4876599;29;20662;-35
2022/09/22 09:20:48;;;;;;;1.10;1.00;;;17.60;52.80;;;;;;4876252;29;20328;-38
2022/09/22 09:23:20;;;;;;;0.80;0.80;;;17.60;52.80;;;;;;4875940;29;20844;-42
2022/09/22 09:25:55;;;;;;;1.30;1.00;;;17.60;52.90;;;;;;4876166;29;20233;-40
2022/09/22 09:28:34;;;;;;;1.27;1.05;;;17.50;52.90;;;;;;4875944;29;20201;-38
2022/09/22 09:31:12;;;;;;;1.15;1.05;;;17.50;52.90;;;;;;4875638;29;20207;-35
2022/09/22 09:33:55;;;;;;;1.25;1.15;;;17.50;52.90;;;;;;4878256;29;20202;-36
2022/09/22 09:36:30;;;;;;;1.23;1.08;;;17.50;53.00;;;;;;4875918;29;20201;-44
2022/09/22 09:39:02;;;;;;;1.67;1.05;;;17.40;53.00;;;;;;4875606;29;20243;-35
2022/09/22 09:41:36;;;;;;;1.20;1.10;;;17.40;53.00;;;;;;4875775;29;20424;-40
2022/09/22 09:44:17;;;;;;;1.15;1.10;;;17.30;53.00;;;;;;4875691;29;20197;-36
2022/09/22 09:46:56;;;;;;;1.10;1.00;;;17.30;53.10;;;;;;4875641;29;20229;-39
2022/09/22 09:49:27;;;;;;;1.30;1.20;;;17.30;53.10;;;;;;4875850;29;20217;-34
2022/09/22 09:52:01;;;;;;;1.25;1.15;;;17.30;53.10;;;;;;4868798;29;20195;-42
2022/09/22 09:54:32;;;;;;;1.15;1.05;;;17.30;53.50;;;;;;4873944;29;20209;-36
2022/09/22 09:57:10;;;;;;;4.00;1.30;;;17.30;54.40;;;;;;4872916;29;20588;-41
2022/09/22 10:02:31;;;;;;;1.67;1.10;;;17.30;54.50;;;;;;4888840;29;20207;-39
2022/09/22 10:05:04;;;;;;;3.00;1.25;;;17.30;54.60;;;;;;4897266;29;20216;-43
2022/09/22 10:07:44;;;;;;;1.40;1.10;;;17.30;54.60;;;;;;4898456;29;20204;-35
2022/09/22 10:10:34;;;;;;;2.08;1.20;;;17.30;54.60;;;;;;4887342;29;20229;-35
2022/09/22 10:13:30;;;;;;;1.95;1.17;;;17.20;54.60;;;;;;4862537;29;20288;-35
2022/09/22 10:16:22;;;;;;;2.55;1.70;;;17.20;54.60;;;;;;4865935;29;20189;-35
2022/09/22 10:19:03;;;;;;;2.10;1.65;;;17.10;54.50;;;;;;4878593;29;20205;-38
2022/09/22 10:21:36;;;;;;;2.38;1.60;;;17.10;54.60;;;;;;4880206;29;20215;-35
2022/09/22 10:24:29;;;;;;;4.30;1.60;;;17.20;54.70;;;;;;4877011;29;20205;-36
2022/09/22 10:27:00;;;;;;;3.67;1.70;;;17.10;54.60;;;;;;4871982;29;20229;-36
2022/09/22 10:29:32;;;;;;;3.30;2.17;;;17.10;54.50;;;;;;4861418;29;20233;-44
2022/09/22 10:32:06;;;;;;;2.00;1.80;;;17.10;54.60;;;;;;4872760;29;20205;-36
2022/09/22 10:34:39;;;;;;;3.15;2.00;;;17.00;54.60;;;;;;4880151;29;20197;-39
2022/09/22 10:37:12;;;;;;;4.22;1.80;;;17.00;54.60;;;;;;4873115;29;20197;-35
2022/09/22 10:39:47;;;;;;;2.70;1.73;;;17.00;54.60;;;;;;4880172;29;20229;-36
2022/09/22 10:42:36;;;;;;;2.10;1.70;;;16.90;54.60;;;;;;4879811;29;20197;-35
2022/09/22 10:45:11;;;;;;;2.90;2.00;;;16.80;54.50;;;;;;4879806;29;20558;-38
2022/09/22 10:47:54;;;;;;;3.00;2.40;;;16.80;54.50;;;;;;4876337;29;20201;-38
2022/09/22 10:50:50;;;;;;;3.03;2.42;;;16.80;54.80;;;;;;4865786;29;20702;-38
2022/09/22 10:53:45;;;;;;;2.22;2.03;;;16.80;54.90;;;;;;4861007;29;20206;-42
2022/09/22 10:56:22;;;;;;;2.47;2.20;;;16.70;54.90;;;;;;4879142;29;20198;-37
2022/09/22 10:59:08;;;;;;;3.47;2.70;;;16.70;54.90;;;;;;4878791;29;20539;-43
2022/09/22 11:01:57;;;;;;;3.45;2.17;;;16.70;54.80;;;;;;4879298;29;20197;-45
2022/09/22 11:04:43;;;;;;;2.80;2.50;;;16.70;54.80;;;;;;4878376;29;20560;-54
2022/09/22 11:13:31;;;;;;;3.13;2.50;;;16.60;54.60;;;;;;4880304;29;20213;-57
2022/09/22 11:16:52;;;;;;;3.15;2.38;;;16.60;54.60;;;;;;4879272;29;20221;-40
2022/09/22 11:19:48;;;;;;;3.30;2.10;;;16.50;54.60;;;;;;4879142;29;20773;-50
2022/09/22 11:22:42;;;;;;;3.17;2.30;;;16.50;54.60;;;;;;4878728;29;20202;-44
2022/09/22 11:25:26;;;;;;;2.70;2.22;;;16.50;54.60;;;;;;4879096;29;20209;-54
2022/09/22 11:28:12;;;;;;;2.38;2.15;;;16.40;54.50;;;;;;4879818;29;20214;-48
2022/09/22 11:30:48;;;;;;;2.72;2.25;;;16.40;54.50;;;;;;4878907;29;20221;-42
2022/09/22 11:33:43;;;;;;;2.42;2.20;;;16.40;54.50;;;;;;4879032;29;20201;-50
2022/09/22 11:36:25;;;;;;;2.25;1.75;;;16.40;54.50;;;;;;4879228;29;20209;-44
2022/09/22 11:39:15;;;;;;;2.08;1.80;;;16.30;54.50;;;;;;4879160;29;21275;-40
2022/09/22 11:41:51;;;;;;;2.95;2.15;;;16.30;54.40;;;;;;4885944;29;20197;-50
2022/09/22 11:44:42;;;;;;;2.70;2.10;;;16.30;54.40;;;;;;4897946;29;20204;-47
2022/09/22 11:47:33;;;;;;;2.50;1.85;;;16.30;54.30;;;;;;4881933;29;20697;-43
2022/09/22 11:50:31;;;;;;;2.45;2.17;;;16.20;54.30;;;;;;4878860;29;20225;-39
2022/09/22 11:53:23;;;;;;;3.10;2.20;;;16.20;54.30;;;;;;4879429;29;20213;-38
2022/09/22 11:56:06;;;;;;;2.75;2.00;;;16.20;54.30;;;;;;4879221;29;20216;-50
2022/09/22 11:58:40;;;;;;;3.30;1.90;;;16.20;54.30;;;;;;4877821;29;20201;-36
2022/09/22 12:01:14;;;;;;;2.30;1.90;;;16.20;54.30;;;;;;4878899;29;20205;-35
2022/09/22 12:03:48;;;;;;;3.08;2.05;;;16.10;54.30;;;;;;4860331;29;20206;-35
2022/09/22 12:06:27;;;;;;;3.78;2.05;;;16.10;54.30;;;;;;4860321;29;20238;-42
2022/09/22 12:09:04;;;;;;;2.53;1.70;;;16.10;54.30;;;;;;4860258;29;20222;-36
2022/09/22 12:11:38;;;;;;;2.15;1.85;;;16.10;54.30;;;;;;4860247;29;20198;-41
2022/09/22 12:14:14;;;;;;;3.08;1.80;;;16.10;54.20;;;;;;4860087;29;20206;-35
2022/09/22 12:16:49;;;;;;;2.75;1.77;;;16.00;54.20;;;;;;4858929;29;20197;-40
2022/09/22 12:19:27;;;;;;;2.47;2.00;;;16.00;54.20;;;;;;4858611;29;20237;-35
2022/09/22 12:22:09;;;;;;;2.92;2.20;;;16.00;54.20;;;;;;4858957;29;20213;-35
2022/09/22 12:24:39;;;;;;;2.33;1.88;;;16.00;54.20;;;;;;4867647;29;20665;-40
2022/09/22 12:27:19;;;;;;;2.80;1.95;;;16.00;54.20;;;;;;4877229;29;20244;-36
2022/09/22 12:29:58;;;;;;;1.88;1.60;;;15.90;54.10;;;;;;4876856;29;20221;-35
2022/09/22 12:32:33;;;;;;;2.20;1.75;;;15.90;54.10;;;;;;4877345;29;20201;-35
2022/09/22 12:35:04;;;;;;;2.05;1.60;;;15.90;54.10;;;;;;4877060;29;20662;-35
2022/09/22 12:37:40;;;;;;;2.03;1.83;;;15.90;54.10;;;;;;4876388;29;20209;-35
2022/09/22 12:40:36;;;;;;;2.10;1.80;;;15.90;54.10;;;;;;4875900;29;20225;-35
2022/09/22 12:43:07;;;;;;;2.10;1.77;;;15.90;54.20;;;;;;4876860;29;20242;-35
2022/09/22 12:45:39;;;;;;;1.85;1.55;;;15.90;54.10;;;;;;4876938;29;20582;-37
2022/09/22 12:48:12;;;;;;;2.08;1.80;;;15.90;54.10;;;;;;4876676;29;20225;-35
2022/09/22 12:51:16;;;;;;;2.38;1.80;;;15.80;54.00;;;;;;5106973;27;20567;-39
2022/09/22 12:53:48;;;;;;;2.00;1.80;;;15.80;54.00;;;;;;5106226;28;20197;-36
2022/09/22 12:56:45;;;;;;;2.05;1.85;;;15.80;54.00;;;;;;5107314;28;20201;-40
2022/09/22 12:59:57;;;;;;;2.25;1.80;;;15.80;54.00;;;;;;5101458;28;20206;-37
2022/09/22 13:02:32;;;;;;;2.15;1.55;;;15.80;54.00;;;;;;5086935;28;20198;-35
2022/09/22 13:05:43;;;;;;;2.13;1.50;;;15.70;53.90;;;;;;5087024;28;20190;-36
2022/09/22 13:08:23;;;;;;;1.88;1.67;;;15.70;53.90;;;;;;5087058;28;20198;-36
2022/09/22 13:11:01;;;;;;;1.60;1.50;;;15.70;53.90;;;;;;5104200;28;20700;-47
2022/09/22 13:13:40;;;;;;;3.22;1.80;;;15.70;53.90;;;;;;5104231;28;20885;-36
2022/09/22 13:16:43;;;;;;;1.98;1.63;;;15.70;53.90;;;;;;5107207;28;20560;-36
2022/09/22 13:19:14;;;;;;;1.83;1.52;;;15.60;53.80;;;;;;5043841;28;20234;-36
2022/09/22 13:21:45;;;;;;;2.42;1.58;;;15.60;53.70;;;;;;5044151;28;20199;-35
2022/09/22 13:24:23;;;;;;;1.65;1.55;;;15.60;53.70;;;;;;5074154;28;20198;-40
2022/09/22 13:27:05;;;;;;;1.70;1.40;;;15.60;53.70;;;;;;5106840;28;20225;-47
2022/09/22 13:29:36;;;;;;;1.75;1.58;;;15.60;53.70;;;;;;5106520;28;20592;-35
2022/09/22 13:32:25;;;;;;;2.42;1.33;;;15.60;53.70;;;;;;5106607;28;20204;-38
2022/09/22 13:34:56;;;;;;;1.63;1.33;;;15.60;53.80;;;;;;5106401;28;20193;-36
2022/09/22 13:37:27;;;;;;;1.83;1.50;;;15.50;53.70;;;;;;5106316;28;20232;-35
2022/09/22 13:39:59;;;;;;;1.40;1.17;;;15.50;53.70;;;;;;5106059;28;20216;-39
2022/09/22 13:42:32;;;;;;;1.40;1.30;;;15.50;53.70;;;;;;5106870;28;20700;-38
2022/09/22 13:45:07;;;;;;;1.73;1.27;;;15.50;53.70;;;;;;5106932;28;20198;-35
2022/09/22 13:47:38;;;;;;;2.25;1.60;;;15.50;53.70;;;;;;5106553;28;20849;-38
2022/09/22 13:50:14;;;;;;;1.70;1.60;;;15.50;53.70;;;;;;5105816;28;20709;-36